sensor_id;sensor_type;location;lat;lon;timestamp;P1;durP1;ratioP1;P2;durP2;ratioP2
7939;SDS011;4015;48.888;9.226;2022-11-15T00:00:43;6.20;;;4.87;;
7939;SDS011;4015;48.888;9.226;2022-11-15T00:03:08;6.77;;;4.90;;
7939;SDS011;4015;48.888;9.226;2022-11-15T00:05:34;7.40;;;4.30;;
7939;SDS011;4015;48.888;9.226;2022-11-15T00:08:01;6.07;;;4.70;;
7939;SDS011;4015;48.888;9.226;2022-11-15T00:10:26;7.03;;;5.07;;
7939;SDS011;4015;48.888;9.226;2022-11-15T00:12:52;5.20;;;4.30;;
7939;SDS011;4015;48.888;9.226;2022-11-15T00:15:17;7.00;;;4.60;;
7939;SDS011;4015;48.888;9.226;2022-11-15T00:17:42;5.63;;;3.90;;
7939;SDS011;4015;48.888;9.226;2022-11-15T00:20:08;6.50;;;3.87;;
7939;SDS011;4015;48.888;9.226;2022-11-15T00:22:35;6.73;;;4.27;;
7939;SDS011;4015;48.888;9.226;2022-11-15T00:25:00;5.67;;;4.37;;
7939;SDS011;4015;48.888;9.226;2022-11-15T00:27:26;5.00;;;4.50;;
7939;SDS011;4015;48.888;9.226;2022-11-15T00:29:52;5.63;;;4.30;;
7939;SDS011;4015;48.888;9.226;2022-11-15T00:32:18;7.93;;;5.10;;
7939;SDS011;4015;48.888;9.226;2022-11-15T00:34:44;6.83;;;4.57;;
7939;SDS011;4015;48.888;9.226;2022-11-15T00:37:09;6.27;;;5.37;;
7939;SDS011;4015;48.888;9.226;2022-11-15T00:39:35;5.90;;;4.60;;
7939;SDS011;4015;48.888;9.226;2022-11-15T00:42:00;6.83;;;5.30;;
7939;SDS011;4015;48.888;9.226;2022-11-15T00:44:25;6.43;;;4.67;;
7939;SDS011;4015;48.888;9.226;2022-11-15T00:46:51;6.90;;;4.63;;
7939;SDS011;4015;48.888;9.226;2022-11-15T00:49:16;6.50;;;5.23;;
7939;SDS011;4015;48.888;9.226;2022-11-15T00:51:41;6.53;;;4.57;;
7939;SDS011;4015;48.888;9.226;2022-11-15T00:54:07;6.60;;;5.60;;
7939;SDS011;4015;48.888;9.226;2022-11-15T00:56:32;6.07;;;4.60;;
7939;SDS011;4015;48.888;9.226;2022-11-15T00:58:58;7.03;;;4.43;;
7939;SDS011;4015;48.888;9.226;2022-11-15T01:01:23;6.73;;;4.90;;
7939;SDS011;4015;48.888;9.226;2022-11-15T01:03:48;9.10;;;5.00;;
7939;SDS011;4015;48.888;9.226;2022-11-15T01:06:14;5.40;;;4.83;;
7939;SDS011;4015;48.888;9.226;2022-11-15T01:08:39;6.77;;;4.20;;
7939;SDS011;4015;48.888;9.226;2022-11-15T01:11:07;7.83;;;4.90;;
7939;SDS011;4015;48.888;9.226;2022-11-15T01:13:34;6.63;;;4.53;;
7939;SDS011;4015;48.888;9.226;2022-11-15T01:16:08;6.60;;;4.67;;
7939;SDS011;4015;48.888;9.226;2022-11-15T01:18:43;6.43;;;4.57;;
7939;SDS011;4015;48.888;9.226;2022-11-15T01:21:10;5.57;;;4.23;;
7939;SDS011;4015;48.888;9.226;2022-11-15T01:23:37;6.27;;;4.67;;
7939;SDS011;4015;48.888;9.226;2022-11-15T01:26:04;6.07;;;4.47;;
7939;SDS011;4015;48.888;9.226;2022-11-15T01:28:32;6.20;;;3.93;;
7939;SDS011;4015;48.888;9.226;2022-11-15T01:31:03;7.53;;;4.10;;
7939;SDS011;4015;48.888;9.226;2022-11-15T01:33:30;6.33;;;4.13;;
7939;SDS011;4015;48.888;9.226;2022-11-15T01:35:56;6.17;;;4.40;;
7939;SDS011;4015;48.888;9.226;2022-11-15T01:38:23;5.17;;;4.23;;
7939;SDS011;4015;48.888;9.226;2022-11-15T01:40:49;5.37;;;3.90;;
7939;SDS011;4015;48.888;9.226;2022-11-15T01:43:19;4.00;;;3.47;;
7939;SDS011;4015;48.888;9.226;2022-11-15T01:45:48;8.93;;;4.30;;
7939;SDS011;4015;48.888;9.226;2022-11-15T01:48:17;6.17;;;4.63;;
7939;SDS011;4015;48.888;9.226;2022-11-15T01:50:43;5.20;;;4.07;;
7939;SDS011;4015;48.888;9.226;2022-11-15T01:53:09;4.57;;;3.57;;
7939;SDS011;4015;48.888;9.226;2022-11-15T01:55:35;5.17;;;4.13;;
7939;SDS011;4015;48.888;9.226;2022-11-15T01:58:02;5.37;;;3.60;;
7939;SDS011;4015;48.888;9.226;2022-11-15T02:00:29;5.00;;;3.70;;
7939;SDS011;4015;48.888;9.226;2022-11-15T02:02:55;5.40;;;3.90;;
7939;SDS011;4015;48.888;9.226;2022-11-15T02:05:21;6.13;;;3.90;;
7939;SDS011;4015;48.888;9.226;2022-11-15T02:07:49;6.20;;;3.97;;
7939;SDS011;4015;48.888;9.226;2022-11-15T02:10:18;5.70;;;3.67;;
7939;SDS011;4015;48.888;9.226;2022-11-15T02:12:46;5.03;;;3.67;;
7939;SDS011;4015;48.888;9.226;2022-11-15T02:15:17;6.93;;;3.93;;
7939;SDS011;4015;48.888;9.226;2022-11-15T02:26:24;3.37;;;3.03;;
7939;SDS011;4015;48.888;9.226;2022-11-15T02:29:12;5.13;;;3.07;;
7939;SDS011;4015;48.888;9.226;2022-11-15T02:31:53;4.20;;;3.03;;
7939;SDS011;4015;48.888;9.226;2022-11-15T02:34:49;3.83;;;2.70;;
7939;SDS011;4015;48.888;9.226;2022-11-15T02:40:46;4.23;;;3.03;;
7939;SDS011;4015;48.888;9.226;2022-11-15T02:43:26;8.47;;;3.20;;
7939;SDS011;4015;48.888;9.226;2022-11-15T02:46:59;3.47;;;2.93;;
7939;SDS011;4015;48.888;9.226;2022-11-15T02:49:45;7.73;;;3.57;;
7939;SDS011;4015;48.888;9.226;2022-11-15T02:52:16;5.10;;;2.80;;
7939;SDS011;4015;48.888;9.226;2022-11-15T02:54:58;5.07;;;2.57;;
7939;SDS011;4015;48.888;9.226;2022-11-15T03:00:00;4.53;;;2.90;;
7939;SDS011;4015;48.888;9.226;2022-11-15T03:05:34;4.30;;;2.93;;
7939;SDS011;4015;48.888;9.226;2022-11-15T03:16:05;3.93;;;2.57;;
7939;SDS011;4015;48.888;9.226;2022-11-15T03:18:43;5.13;;;3.37;;
7939;SDS011;4015;48.888;9.226;2022-11-15T03:21:19;5.13;;;3.50;;
7939;SDS011;4015;48.888;9.226;2022-11-15T03:23:47;4.03;;;3.23;;
7939;SDS011;4015;48.888;9.226;2022-11-15T03:26:15;5.77;;;3.90;;
7939;SDS011;4015;48.888;9.226;2022-11-15T03:28:53;5.37;;;3.23;;
7939;SDS011;4015;48.888;9.226;2022-11-15T03:31:23;5.97;;;4.00;;
7939;SDS011;4015;48.888;9.226;2022-11-15T03:34:11;3.70;;;3.30;;
7939;SDS011;4015;48.888;9.226;2022-11-15T03:36:47;5.80;;;3.80;;
7939;SDS011;4015;48.888;9.226;2022-11-15T03:39:15;7.47;;;3.73;;
7939;SDS011;4015;48.888;9.226;2022-11-15T03:41:43;4.03;;;3.47;;
7939;SDS011;4015;48.888;9.226;2022-11-15T03:47:14;6.53;;;4.50;;
7939;SDS011;4015;48.888;9.226;2022-11-15T03:49:46;6.33;;;4.43;;
7939;SDS011;4015;48.888;9.226;2022-11-15T03:52:19;8.03;;;5.47;;
7939;SDS011;4015;48.888;9.226;2022-11-15T03:54:49;6.47;;;5.10;;
7939;SDS011;4015;48.888;9.226;2022-11-15T03:57:22;7.03;;;5.37;;
7939;SDS011;4015;48.888;9.226;2022-11-15T03:59:47;8.70;;;5.50;;
7939;SDS011;4015;48.888;9.226;2022-11-15T04:02:15;10.90;;;5.77;;
7939;SDS011;4015;48.888;9.226;2022-11-15T04:04:40;8.97;;;5.83;;
7939;SDS011;4015;48.888;9.226;2022-11-15T04:07:06;7.60;;;5.60;;
7939;SDS011;4015;48.888;9.226;2022-11-15T04:09:31;7.50;;;5.53;;
7939;SDS011;4015;48.888;9.226;2022-11-15T04:11:59;10.20;;;5.27;;
7939;SDS011;4015;48.888;9.226;2022-11-15T04:14:24;9.97;;;5.73;;
7939;SDS011;4015;48.888;9.226;2022-11-15T04:16:50;9.87;;;6.17;;
7939;SDS011;4015;48.888;9.226;2022-11-15T04:19:18;8.43;;;5.53;;
7939;SDS011;4015;48.888;9.226;2022-11-15T04:22:22;10.00;;;5.33;;
7939;SDS011;4015;48.888;9.226;2022-11-15T04:25:06;8.43;;;5.97;;
7939;SDS011;4015;48.888;9.226;2022-11-15T04:30:23;7.90;;;6.07;;
7939;SDS011;4015;48.888;9.226;2022-11-15T04:32:48;7.60;;;5.70;;
7939;SDS011;4015;48.888;9.226;2022-11-15T04:35:14;9.33;;;6.43;;
7939;SDS011;4015;48.888;9.226;2022-11-15T04:37:40;9.23;;;5.47;;
7939;SDS011;4015;48.888;9.226;2022-11-15T04:40:05;7.57;;;5.93;;
7939;SDS011;4015;48.888;9.226;2022-11-15T04:42:34;10.10;;;5.00;;
7939;SDS011;4015;48.888;9.226;2022-11-15T04:44:59;9.70;;;5.63;;
7939;SDS011;4015;48.888;9.226;2022-11-15T04:47:25;6.60;;;5.90;;
7939;SDS011;4015;48.888;9.226;2022-11-15T04:49:50;7.87;;;5.60;;
7939;SDS011;4015;48.888;9.226;2022-11-15T04:52:15;7.37;;;5.43;;
7939;SDS011;4015;48.888;9.226;2022-11-15T04:54:41;8.77;;;6.20;;
7939;SDS011;4015;48.888;9.226;2022-11-15T04:57:07;9.80;;;5.93;;
7939;SDS011;4015;48.888;9.226;2022-11-15T04:59:33;10.27;;;6.40;;
7939;SDS011;4015;48.888;9.226;2022-11-15T05:01:58;7.83;;;5.83;;
7939;SDS011;4015;48.888;9.226;2022-11-15T05:04:24;10.67;;;6.07;;
7939;SDS011;4015;48.888;9.226;2022-11-15T05:06:50;7.83;;;6.10;;
7939;SDS011;4015;48.888;9.226;2022-11-15T05:09:19;7.23;;;5.90;;
7939;SDS011;4015;48.888;9.226;2022-11-15T05:11:45;6.20;;;4.67;;
7939;SDS011;4015;48.888;9.226;2022-11-15T05:14:11;6.67;;;5.37;;
7939;SDS011;4015;48.888;9.226;2022-11-15T05:16:37;8.50;;;5.10;;
7939;SDS011;4015;48.888;9.226;2022-11-15T05:19:03;9.57;;;5.27;;
7939;SDS011;4015;48.888;9.226;2022-11-15T05:21:28;6.77;;;5.43;;
7939;SDS011;4015;48.888;9.226;2022-11-15T05:23:54;8.33;;;5.20;;
7939;SDS011;4015;48.888;9.226;2022-11-15T05:26:19;8.30;;;5.23;;
7939;SDS011;4015;48.888;9.226;2022-11-15T05:28:45;8.73;;;5.40;;
7939;SDS011;4015;48.888;9.226;2022-11-15T05:31:11;7.43;;;4.73;;
7939;SDS011;4015;48.888;9.226;2022-11-15T05:33:39;7.90;;;5.60;;
7939;SDS011;4015;48.888;9.226;2022-11-15T05:38:41;7.43;;;5.90;;
7939;SDS011;4015;48.888;9.226;2022-11-15T05:41:06;8.93;;;5.70;;
7939;SDS011;4015;48.888;9.226;2022-11-15T05:43:33;10.97;;;6.93;;
7939;SDS011;4015;48.888;9.226;2022-11-15T05:46:01;10.30;;;6.80;;
7939;SDS011;4015;48.888;9.226;2022-11-15T05:48:29;8.63;;;6.43;;
7939;SDS011;4015;48.888;9.226;2022-11-15T05:50:55;10.17;;;6.90;;
7939;SDS011;4015;48.888;9.226;2022-11-15T05:53:21;8.13;;;6.50;;
7939;SDS011;4015;48.888;9.226;2022-11-15T05:55:49;8.67;;;7.23;;
7939;SDS011;4015;48.888;9.226;2022-11-15T05:58:15;8.30;;;6.97;;
7939;SDS011;4015;48.888;9.226;2022-11-15T06:00:40;13.37;;;7.50;;
7939;SDS011;4015;48.888;9.226;2022-11-15T06:03:08;11.17;;;6.40;;
7939;SDS011;4015;48.888;9.226;2022-11-15T06:05:33;7.10;;;6.40;;
7939;SDS011;4015;48.888;9.226;2022-11-15T06:07:59;9.13;;;6.00;;
7939;SDS011;4015;48.888;9.226;2022-11-15T06:10:24;9.73;;;7.27;;
7939;SDS011;4015;48.888;9.226;2022-11-15T06:12:57;6.93;;;5.60;;
7939;SDS011;4015;48.888;9.226;2022-11-15T06:15:23;10.17;;;7.27;;
7939;SDS011;4015;48.888;9.226;2022-11-15T06:17:48;9.27;;;6.87;;
7939;SDS011;4015;48.888;9.226;2022-11-15T06:20:14;8.33;;;6.40;;
7939;SDS011;4015;48.888;9.226;2022-11-15T06:22:39;11.13;;;7.10;;
7939;SDS011;4015;48.888;9.226;2022-11-15T06:25:05;12.33;;;6.80;;
7939;SDS011;4015;48.888;9.226;2022-11-15T06:27:30;10.20;;;5.93;;
7939;SDS011;4015;48.888;9.226;2022-11-15T06:29:55;7.57;;;6.53;;
7939;SDS011;4015;48.888;9.226;2022-11-15T06:32:21;8.33;;;5.83;;
7939;SDS011;4015;48.888;9.226;2022-11-15T06:34:46;10.33;;;6.50;;
7939;SDS011;4015;48.888;9.226;2022-11-15T06:37:11;7.53;;;5.83;;
7939;SDS011;4015;48.888;9.226;2022-11-15T06:39:37;7.73;;;5.87;;
7939;SDS011;4015;48.888;9.226;2022-11-15T06:42:02;6.47;;;5.37;;
7939;SDS011;4015;48.888;9.226;2022-11-15T06:44:27;6.43;;;5.13;;
7939;SDS011;4015;48.888;9.226;2022-11-15T06:46:53;12.67;;;5.73;;
7939;SDS011;4015;48.888;9.226;2022-11-15T06:49:18;6.80;;;5.70;;
7939;SDS011;4015;48.888;9.226;2022-11-15T06:51:43;10.33;;;6.40;;
7939;SDS011;4015;48.888;9.226;2022-11-15T06:54:09;10.03;;;6.43;;
7939;SDS011;4015;48.888;9.226;2022-11-15T06:56:34;7.40;;;5.37;;
7939;SDS011;4015;48.888;9.226;2022-11-15T06:59:00;5.47;;;4.93;;
7939;SDS011;4015;48.888;9.226;2022-11-15T07:01:25;7.03;;;5.67;;
7939;SDS011;4015;48.888;9.226;2022-11-15T07:03:50;8.10;;;5.50;;
7939;SDS011;4015;48.888;9.226;2022-11-15T07:06:16;9.97;;;6.47;;
7939;SDS011;4015;48.888;9.226;2022-11-15T07:08:41;7.93;;;5.60;;
7939;SDS011;4015;48.888;9.226;2022-11-15T07:11:07;20.03;;;11.23;;
7939;SDS011;4015;48.888;9.226;2022-11-15T07:13:34;6.57;;;5.20;;
7939;SDS011;4015;48.888;9.226;2022-11-15T07:16:01;7.67;;;4.97;;
7939;SDS011;4015;48.888;9.226;2022-11-15T07:18:29;9.27;;;5.50;;
7939;SDS011;4015;48.888;9.226;2022-11-15T07:20:55;6.50;;;4.63;;
7939;SDS011;4015;48.888;9.226;2022-11-15T07:23:20;13.17;;;8.80;;
7939;SDS011;4015;48.888;9.226;2022-11-15T07:25:45;28.53;;;20.83;;
7939;SDS011;4015;48.888;9.226;2022-11-15T07:28:11;8.53;;;5.40;;
7939;SDS011;4015;48.888;9.226;2022-11-15T07:30:36;9.20;;;5.70;;
7939;SDS011;4015;48.888;9.226;2022-11-15T07:33:01;8.30;;;5.60;;
7939;SDS011;4015;48.888;9.226;2022-11-15T07:35:27;8.57;;;6.00;;
7939;SDS011;4015;48.888;9.226;2022-11-15T07:37:54;8.50;;;5.33;;
7939;SDS011;4015;48.888;9.226;2022-11-15T07:40:23;10.23;;;6.13;;
7939;SDS011;4015;48.888;9.226;2022-11-15T07:42:50;10.40;;;6.97;;
7939;SDS011;4015;48.888;9.226;2022-11-15T07:45:19;7.13;;;5.37;;
7939;SDS011;4015;48.888;9.226;2022-11-15T07:47:46;9.53;;;5.37;;
7939;SDS011;4015;48.888;9.226;2022-11-15T07:50:12;17.33;;;5.97;;
7939;SDS011;4015;48.888;9.226;2022-11-15T07:52:37;7.67;;;5.30;;
7939;SDS011;4015;48.888;9.226;2022-11-15T07:55:02;6.47;;;5.23;;
7939;SDS011;4015;48.888;9.226;2022-11-15T07:57:29;11.50;;;5.90;;
7939;SDS011;4015;48.888;9.226;2022-11-15T07:59:54;8.53;;;5.60;;
7939;SDS011;4015;48.888;9.226;2022-11-15T08:02:19;8.23;;;5.23;;
7939;SDS011;4015;48.888;9.226;2022-11-15T08:04:45;11.07;;;5.13;;
7939;SDS011;4015;48.888;9.226;2022-11-15T08:07:10;9.77;;;4.90;;
7939;SDS011;4015;48.888;9.226;2022-11-15T08:09:35;7.30;;;4.60;;
7939;SDS011;4015;48.888;9.226;2022-11-15T08:12:01;9.07;;;4.93;;
7939;SDS011;4015;48.888;9.226;2022-11-15T08:14:26;14.93;;;5.30;;
7939;SDS011;4015;48.888;9.226;2022-11-15T08:16:52;9.97;;;4.63;;
7939;SDS011;4015;48.888;9.226;2022-11-15T08:19:17;8.07;;;4.53;;
7939;SDS011;4015;48.888;9.226;2022-11-15T08:21:43;5.23;;;4.33;;
7939;SDS011;4015;48.888;9.226;2022-11-15T08:24:09;5.93;;;4.47;;
7939;SDS011;4015;48.888;9.226;2022-11-15T08:26:35;7.57;;;4.90;;
7939;SDS011;4015;48.888;9.226;2022-11-15T08:29:01;7.33;;;5.40;;
7939;SDS011;4015;48.888;9.226;2022-11-15T08:31:26;6.03;;;4.50;;
7939;SDS011;4015;48.888;9.226;2022-11-15T08:33:52;7.23;;;4.50;;
7939;SDS011;4015;48.888;9.226;2022-11-15T08:36:17;8.73;;;4.87;;
7939;SDS011;4015;48.888;9.226;2022-11-15T08:38:43;6.87;;;4.37;;
7939;SDS011;4015;48.888;9.226;2022-11-15T08:41:09;8.13;;;4.30;;
7939;SDS011;4015;48.888;9.226;2022-11-15T08:43:38;6.30;;;4.47;;
7939;SDS011;4015;48.888;9.226;2022-11-15T08:46:04;8.97;;;4.20;;
7939;SDS011;4015;48.888;9.226;2022-11-15T08:48:29;6.10;;;4.27;;
7939;SDS011;4015;48.888;9.226;2022-11-15T08:50:55;8.60;;;3.57;;
7939;SDS011;4015;48.888;9.226;2022-11-15T08:53:21;5.37;;;3.70;;
7939;SDS011;4015;48.888;9.226;2022-11-15T08:55:47;7.23;;;4.23;;
7939;SDS011;4015;48.888;9.226;2022-11-15T08:58:12;7.03;;;3.67;;
7939;SDS011;4015;48.888;9.226;2022-11-15T09:00:38;5.07;;;3.50;;
7939;SDS011;4015;48.888;9.226;2022-11-15T09:03:06;6.17;;;3.60;;
7939;SDS011;4015;48.888;9.226;2022-11-15T09:05:35;5.63;;;3.53;;
7939;SDS011;4015;48.888;9.226;2022-11-15T09:08:01;4.93;;;3.70;;
7939;SDS011;4015;48.888;9.226;2022-11-15T09:10:26;5.27;;;3.60;;
7939;SDS011;4015;48.888;9.226;2022-11-15T09:12:52;6.13;;;3.50;;
7939;SDS011;4015;48.888;9.226;2022-11-15T09:15:17;4.07;;;3.17;;
7939;SDS011;4015;48.888;9.226;2022-11-15T09:17:43;6.87;;;3.00;;
7939;SDS011;4015;48.888;9.226;2022-11-15T09:20:09;6.03;;;3.53;;
7939;SDS011;4015;48.888;9.226;2022-11-15T09:22:34;6.53;;;3.30;;
7939;SDS011;4015;48.888;9.226;2022-11-15T09:25:01;4.23;;;3.13;;
7939;SDS011;4015;48.888;9.226;2022-11-15T09:27:28;4.07;;;3.20;;
7939;SDS011;4015;48.888;9.226;2022-11-15T09:29:54;6.73;;;3.50;;
7939;SDS011;4015;48.888;9.226;2022-11-15T09:32:19;5.83;;;3.17;;
7939;SDS011;4015;48.888;9.226;2022-11-15T09:34:44;5.27;;;2.60;;
7939;SDS011;4015;48.888;9.226;2022-11-15T09:37:10;4.33;;;3.50;;
7939;SDS011;4015;48.888;9.226;2022-11-15T09:39:37;5.17;;;3.90;;
7939;SDS011;4015;48.888;9.226;2022-11-15T09:45:02;9.00;;;3.87;;
7939;SDS011;4015;48.888;9.226;2022-11-15T09:50:32;4.25;;;2.97;;
7939;SDS011;4015;48.888;9.226;2022-11-15T09:53:04;3.40;;;3.10;;
7939;SDS011;4015;48.888;9.226;2022-11-15T09:55:39;5.35;;;2.92;;
7939;SDS011;4015;48.888;9.226;2022-11-15T10:01:04;5.13;;;3.50;;
7939;SDS011;4015;48.888;9.226;2022-11-15T10:03:37;5.25;;;3.13;;
7939;SDS011;4015;48.888;9.226;2022-11-15T10:06:13;4.38;;;3.40;;
7939;SDS011;4015;48.888;9.226;2022-11-15T10:08:56;7.10;;;3.47;;
7939;SDS011;4015;48.888;9.226;2022-11-15T10:11:29;5.28;;;3.42;;
7939;SDS011;4015;48.888;9.226;2022-11-15T10:14:10;4.80;;;3.42;;
7939;SDS011;4015;48.888;9.226;2022-11-15T10:24:25;3.90;;;3.00;;
7939;SDS011;4015;48.888;9.226;2022-11-15T10:26:55;7.05;;;3.50;;
7939;SDS011;4015;48.888;9.226;2022-11-15T10:29:22;4.05;;;3.00;;
7939;SDS011;4015;48.888;9.226;2022-11-15T10:31:49;7.53;;;3.97;;
7939;SDS011;4015;48.888;9.226;2022-11-15T10:34:16;5.40;;;2.95;;
7939;SDS011;4015;48.888;9.226;2022-11-15T10:36:53;4.97;;;3.35;;
7939;SDS011;4015;48.888;9.226;2022-11-15T10:39:19;7.05;;;3.42;;
7939;SDS011;4015;48.888;9.226;2022-11-15T10:41:45;7.00;;;3.13;;
7939;SDS011;4015;48.888;9.226;2022-11-15T10:46:44;4.80;;;2.53;;
7939;SDS011;4015;48.888;9.226;2022-11-15T10:49:17;4.95;;;2.67;;
7939;SDS011;4015;48.888;9.226;2022-11-15T10:54:27;7.57;;;3.10;;
7939;SDS011;4015;48.888;9.226;2022-11-15T10:59:49;4.17;;;2.60;;
7939;SDS011;4015;48.888;9.226;2022-11-15T11:05:25;4.80;;;2.85;;
7939;SDS011;4015;48.888;9.226;2022-11-15T11:10:56;5.93;;;2.70;;
7939;SDS011;4015;48.888;9.226;2022-11-15T11:13:24;3.27;;;2.80;;
7939;SDS011;4015;48.888;9.226;2022-11-15T11:15:54;7.30;;;3.07;;
7939;SDS011;4015;48.888;9.226;2022-11-15T11:18:28;4.13;;;2.85;;
7939;SDS011;4015;48.888;9.226;2022-11-15T11:21:03;5.20;;;2.70;;
7939;SDS011;4015;48.888;9.226;2022-11-15T11:23:37;4.57;;;3.13;;
7939;SDS011;4015;48.888;9.226;2022-11-15T11:26:24;4.77;;;2.80;;
7939;SDS011;4015;48.888;9.226;2022-11-15T11:29:41;5.20;;;2.67;;
7939;SDS011;4015;48.888;9.226;2022-11-15T11:32:03;4.33;;;2.90;;
7939;SDS011;4015;48.888;9.226;2022-11-15T11:34:46;6.80;;;2.70;;
7939;SDS011;4015;48.888;9.226;2022-11-15T11:37:26;2.97;;;2.57;;
7939;SDS011;4015;48.888;9.226;2022-11-15T11:42:45;7.67;;;2.77;;
7939;SDS011;4015;48.888;9.226;2022-11-15T11:45:22;4.90;;;2.60;;
7939;SDS011;4015;48.888;9.226;2022-11-15T11:50:40;5.63;;;2.43;;
7939;SDS011;4015;48.888;9.226;2022-11-15T11:55:53;3.83;;;2.47;;
7939;SDS011;4015;48.888;9.226;2022-11-15T11:58:28;4.27;;;2.30;;
7939;SDS011;4015;48.888;9.226;2022-11-15T12:01:07;11.23;;;2.60;;
7939;SDS011;4015;48.888;9.226;2022-11-15T12:03:47;5.05;;;2.75;;
7939;SDS011;4015;48.888;9.226;2022-11-15T12:14:32;4.60;;;3.67;;
7939;SDS011;4015;48.888;9.226;2022-11-15T12:17:04;5.38;;;3.28;;
7939;SDS011;4015;48.888;9.226;2022-11-15T12:19:29;5.88;;;3.28;;
7939;SDS011;4015;48.888;9.226;2022-11-15T12:25:13;5.63;;;3.75;;
7939;SDS011;4015;48.888;9.226;2022-11-15T12:27:56;6.10;;;3.58;;
7939;SDS011;4015;48.888;9.226;2022-11-15T12:30:27;6.57;;;3.03;;
7939;SDS011;4015;48.888;9.226;2022-11-15T12:33:03;7.20;;;3.58;;
7939;SDS011;4015;48.888;9.226;2022-11-15T12:35:36;5.43;;;3.20;;
7939;SDS011;4015;48.888;9.226;2022-11-15T12:38:08;7.72;;;3.30;;
7939;SDS011;4015;48.888;9.226;2022-11-15T12:40:36;7.43;;;2.53;;
7939;SDS011;4015;48.888;9.226;2022-11-15T12:45:38;6.22;;;2.30;;
7939;SDS011;4015;48.888;9.226;2022-11-15T13:14:52;4.13;;;2.03;;
7939;SDS011;4015;48.888;9.226;2022-11-15T13:19:45;3.87;;;2.60;;
7939;SDS011;4015;48.888;9.226;2022-11-15T13:22:12;3.63;;;2.20;;
7939;SDS011;4015;48.888;9.226;2022-11-15T13:24:56;4.20;;;2.20;;
7939;SDS011;4015;48.888;9.226;2022-11-15T13:27:22;3.80;;;2.10;;
7939;SDS011;4015;48.888;9.226;2022-11-15T13:29:48;4.37;;;2.80;;
7939;SDS011;4015;48.888;9.226;2022-11-15T13:32:13;5.30;;;2.13;;
7939;SDS011;4015;48.888;9.226;2022-11-15T13:34:47;3.87;;;2.33;;
7939;SDS011;4015;48.888;9.226;2022-11-15T13:39:45;8.20;;;3.17;;
7939;SDS011;4015;48.888;9.226;2022-11-15T13:42:17;3.77;;;2.13;;
7939;SDS011;4015;48.888;9.226;2022-11-15T13:44:58;5.57;;;2.30;;
7939;SDS011;4015;48.888;9.226;2022-11-15T13:47:26;5.20;;;2.47;;
7939;SDS011;4015;48.888;9.226;2022-11-15T13:49:52;3.37;;;2.20;;
7939;SDS011;4015;48.888;9.226;2022-11-15T13:52:18;2.23;;;1.97;;
7939;SDS011;4015;48.888;9.226;2022-11-15T13:54:59;4.60;;;1.97;;
7939;SDS011;4015;48.888;9.226;2022-11-15T14:00:26;3.83;;;1.90;;
7939;SDS011;4015;48.888;9.226;2022-11-15T14:03:04;2.80;;;1.50;;
7939;SDS011;4015;48.888;9.226;2022-11-15T14:05:33;3.90;;;2.10;;
7939;SDS011;4015;48.888;9.226;2022-11-15T14:08:00;3.40;;;2.00;;
7939;SDS011;4015;48.888;9.226;2022-11-15T14:10:37;2.30;;;1.83;;
7939;SDS011;4015;48.888;9.226;2022-11-15T14:13:03;3.30;;;2.43;;
7939;SDS011;4015;48.888;9.226;2022-11-15T14:18:02;6.40;;;2.50;;
7939;SDS011;4015;48.888;9.226;2022-11-15T14:20:33;13.10;;;2.57;;
7939;SDS011;4015;48.888;9.226;2022-11-15T14:23:26;5.63;;;2.70;;
7939;SDS011;4015;48.888;9.226;2022-11-15T14:25:56;5.67;;;2.30;;
7939;SDS011;4015;48.888;9.226;2022-11-15T14:30:48;6.33;;;2.33;;
7939;SDS011;4015;48.888;9.226;2022-11-15T14:33:27;2.40;;;2.20;;
7939;SDS011;4015;48.888;9.226;2022-11-15T14:36:11;3.50;;;2.03;;
7939;SDS011;4015;48.888;9.226;2022-11-15T14:38:38;5.50;;;2.37;;
7939;SDS011;4015;48.888;9.226;2022-11-15T14:41:03;3.90;;;2.40;;
7939;SDS011;4015;48.888;9.226;2022-11-15T14:43:29;4.00;;;2.27;;
7939;SDS011;4015;48.888;9.226;2022-11-15T14:45:54;4.13;;;2.30;;
7939;SDS011;4015;48.888;9.226;2022-11-15T14:48:20;6.93;;;2.27;;
7939;SDS011;4015;48.888;9.226;2022-11-15T14:50:45;3.80;;;2.60;;
7939;SDS011;4015;48.888;9.226;2022-11-15T14:53:13;4.17;;;2.53;;
7939;SDS011;4015;48.888;9.226;2022-11-15T14:55:40;5.83;;;2.33;;
7939;SDS011;4015;48.888;9.226;2022-11-15T14:58:06;6.03;;;3.00;;
7939;SDS011;4015;48.888;9.226;2022-11-15T15:00:36;3.60;;;2.63;;
7939;SDS011;4015;48.888;9.226;2022-11-15T15:03:05;6.73;;;3.00;;
7939;SDS011;4015;48.888;9.226;2022-11-15T15:05:38;5.33;;;3.37;;
7939;SDS011;4015;48.888;9.226;2022-11-15T15:08:08;6.30;;;2.97;;
7939;SDS011;4015;48.888;9.226;2022-11-15T15:10:38;5.73;;;3.57;;
7939;SDS011;4015;48.888;9.226;2022-11-15T15:13:06;5.57;;;2.43;;
7939;SDS011;4015;48.888;9.226;2022-11-15T15:15:44;4.87;;;2.87;;
7939;SDS011;4015;48.888;9.226;2022-11-15T15:18:10;4.77;;;2.80;;
7939;SDS011;4015;48.888;9.226;2022-11-15T15:20:36;5.67;;;2.87;;
7939;SDS011;4015;48.888;9.226;2022-11-15T15:23:04;3.60;;;2.80;;
7939;SDS011;4015;48.888;9.226;2022-11-15T15:25:30;5.90;;;2.70;;
7939;SDS011;4015;48.888;9.226;2022-11-15T15:28:00;6.30;;;3.10;;
7939;SDS011;4015;48.888;9.226;2022-11-15T15:30:26;5.43;;;3.17;;
7939;SDS011;4015;48.888;9.226;2022-11-15T15:32:53;7.43;;;3.60;;
7939;SDS011;4015;48.888;9.226;2022-11-15T15:35:19;5.30;;;3.40;;
7939;SDS011;4015;48.888;9.226;2022-11-15T15:37:45;5.13;;;3.33;;
7939;SDS011;4015;48.888;9.226;2022-11-15T15:42:42;8.80;;;7.27;;
7939;SDS011;4015;48.888;9.226;2022-11-15T15:45:08;9.23;;;6.47;;
7939;SDS011;4015;48.888;9.226;2022-11-15T15:47:34;6.23;;;3.90;;
7939;SDS011;4015;48.888;9.226;2022-11-15T15:49:59;6.40;;;3.07;;
7939;SDS011;4015;48.888;9.226;2022-11-15T15:52:25;4.63;;;2.87;;
7939;SDS011;4015;48.888;9.226;2022-11-15T15:54:50;5.00;;;3.47;;
7939;SDS011;4015;48.888;9.226;2022-11-15T15:57:34;9.37;;;3.77;;
7939;SDS011;4015;48.888;9.226;2022-11-15T16:00:20;9.80;;;3.90;;
7939;SDS011;4015;48.888;9.226;2022-11-15T16:02:48;7.60;;;3.63;;
7939;SDS011;4015;48.888;9.226;2022-11-15T16:05:13;4.83;;;3.60;;
7939;SDS011;4015;48.888;9.226;2022-11-15T16:07:39;9.40;;;4.77;;
7939;SDS011;4015;48.888;9.226;2022-11-15T16:10:24;5.47;;;4.33;;
7939;SDS011;4015;48.888;9.226;2022-11-15T16:12:54;9.50;;;5.37;;
7939;SDS011;4015;48.888;9.226;2022-11-15T16:15:22;13.93;;;5.57;;
7939;SDS011;4015;48.888;9.226;2022-11-15T16:17:52;11.37;;;5.70;;
7939;SDS011;4015;48.888;9.226;2022-11-15T16:20:23;13.30;;;7.83;;
7939;SDS011;4015;48.888;9.226;2022-11-15T16:23:05;10.00;;;6.40;;
7939;SDS011;4015;48.888;9.226;2022-11-15T16:25:41;11.23;;;6.23;;
7939;SDS011;4015;48.888;9.226;2022-11-15T16:28:19;10.63;;;6.20;;
7939;SDS011;4015;48.888;9.226;2022-11-15T16:31:02;10.10;;;6.50;;
7939;SDS011;4015;48.888;9.226;2022-11-15T16:33:29;10.77;;;5.60;;
7939;SDS011;4015;48.888;9.226;2022-11-15T16:35:55;8.73;;;5.20;;
7939;SDS011;4015;48.888;9.226;2022-11-15T16:38:20;8.87;;;5.47;;
7939;SDS011;4015;48.888;9.226;2022-11-15T16:40:46;8.27;;;5.57;;
7939;SDS011;4015;48.888;9.226;2022-11-15T16:43:11;10.50;;;5.87;;
7939;SDS011;4015;48.888;9.226;2022-11-15T16:45:37;10.17;;;6.17;;
7939;SDS011;4015;48.888;9.226;2022-11-15T16:48:02;9.73;;;6.90;;
7939;SDS011;4015;48.888;9.226;2022-11-15T16:50:31;14.30;;;7.00;;
7939;SDS011;4015;48.888;9.226;2022-11-15T16:53:03;10.17;;;5.27;;
7939;SDS011;4015;48.888;9.226;2022-11-15T16:55:31;13.17;;;6.50;;
7939;SDS011;4015;48.888;9.226;2022-11-15T16:57:57;8.70;;;5.60;;
7939;SDS011;4015;48.888;9.226;2022-11-15T17:00:22;8.83;;;5.70;;
7939;SDS011;4015;48.888;9.226;2022-11-15T17:02:49;10.13;;;6.23;;
7939;SDS011;4015;48.888;9.226;2022-11-15T17:05:16;11.97;;;5.30;;
7939;SDS011;4015;48.888;9.226;2022-11-15T17:07:45;8.60;;;5.13;;
7939;SDS011;4015;48.888;9.226;2022-11-15T17:10:13;7.97;;;5.40;;
7939;SDS011;4015;48.888;9.226;2022-11-15T17:12:38;5.57;;;4.83;;
7939;SDS011;4015;48.888;9.226;2022-11-15T17:15:04;9.90;;;4.70;;
7939;SDS011;4015;48.888;9.226;2022-11-15T17:17:30;12.57;;;5.00;;
7939;SDS011;4015;48.888;9.226;2022-11-15T17:19:56;11.23;;;4.90;;
7939;SDS011;4015;48.888;9.226;2022-11-15T17:22:21;8.00;;;5.10;;
7939;SDS011;4015;48.888;9.226;2022-11-15T17:24:47;11.17;;;5.10;;
7939;SDS011;4015;48.888;9.226;2022-11-15T17:27:13;6.17;;;3.90;;
7939;SDS011;4015;48.888;9.226;2022-11-15T17:29:39;5.03;;;4.00;;
7939;SDS011;4015;48.888;9.226;2022-11-15T17:32:05;6.43;;;4.27;;